sensor_id;sensor_type;location;lat;lon;timestamp;temperature;humidity
65472;DHT22;52068;50.710;14.492;2023-02-13T00:00:22;25.73;33.09
65472;DHT22;52068;50.710;14.492;2023-02-13T00:02:47;25.49;33.61
65472;DHT22;52068;50.710;14.492;2023-02-13T00:05:13;25.26;33.96
65472;DHT22;52068;50.710;14.492;2023-02-13T00:07:38;25.10;34.29
65472;DHT22;52068;50.710;14.492;2023-02-13T00:10:03;24.91;34.59
65472;DHT22;52068;50.710;14.492;2023-02-13T00:12:29;24.75;34.80
65472;DHT22;52068;50.710;14.492;2023-02-13T00:14:54;24.60;35.03
65472;DHT22;52068;50.710;14.492;2023-02-13T00:17:19;24.47;35.33
65472;DHT22;52068;50.710;14.492;2023-02-13T00:19:45;24.30;35.66
65472;DHT22;52068;50.710;14.492;2023-02-13T00:22:10;24.16;35.95
65472;DHT22;52068;50.710;14.492;2023-02-13T00:24:35;24.01;36.02
65472;DHT22;52068;50.710;14.492;2023-02-13T00:27:01;23.92;35.98
65472;DHT22;52068;50.710;14.492;2023-02-13T00:29:26;23.90;36.04
65472;DHT22;52068;50.710;14.492;2023-02-13T00:31:51;24.09;35.87
65472;DHT22;52068;50.710;14.492;2023-02-13T00:34:16;24.39;35.36
65472;DHT22;52068;50.710;14.492;2023-02-13T00:36:42;24.75;34.77
65472;DHT22;52068;50.710;14.492;2023-02-13T00:39:08;25.04;34.48
65472;DHT22;52068;50.710;14.492;2023-02-13T00:41:35;25.25;34.03
65472;DHT22;52068;50.710;14.492;2023-02-13T00:44:00;25.24;34.02
65472;DHT22;52068;50.710;14.492;2023-02-13T00:46:25;25.12;34.15
65472;DHT22;52068;50.710;14.492;2023-02-13T00:48:50;24.95;34.48
65472;DHT22;52068;50.710;14.492;2023-02-13T00:51:16;24.78;34.84
65472;DHT22;52068;50.710;14.492;2023-02-13T00:53:41;24.64;34.96
65472;DHT22;52068;50.710;14.492;2023-02-13T00:56:06;24.53;35.04
65472;DHT22;52068;50.710;14.492;2023-02-13T00:58:32;24.34;35.41
65472;DHT22;52068;50.710;14.492;2023-02-13T01:00:57;24.23;35.65
65472;DHT22;52068;50.710;14.492;2023-02-13T01:03:23;24.12;35.85
65472;DHT22;52068;50.710;14.492;2023-02-13T01:05:49;23.99;36.01
65472;DHT22;52068;50.710;14.492;2023-02-13T01:08:15;23.90;36.12
65472;DHT22;52068;50.710;14.492;2023-02-13T01:10:41;23.76;36.24
65472;DHT22;52068;50.710;14.492;2023-02-13T01:13:07;23.64;36.46
65472;DHT22;52068;50.710;14.492;2023-02-13T01:15:32;23.54;36.30
65472;DHT22;52068;50.710;14.492;2023-02-13T01:17:58;23.51;36.42
65472;DHT22;52068;50.710;14.492;2023-02-13T01:20:25;23.59;36.46
65472;DHT22;52068;50.710;14.492;2023-02-13T01:22:50;23.93;36.03
65472;DHT22;52068;50.710;14.492;2023-02-13T01:25:16;24.39;35.35
65472;DHT22;52068;50.710;14.492;2023-02-13T01:27:41;24.85;34.56
65472;DHT22;52068;50.710;14.492;2023-02-13T01:30:07;25.22;33.89
65472;DHT22;52068;50.710;14.492;2023-02-13T01:32:36;25.45;33.46
65472;DHT22;52068;50.710;14.492;2023-02-13T01:35:02;25.49;33.27
65472;DHT22;52068;50.710;14.492;2023-02-13T01:37:27;25.39;33.38
65472;DHT22;52068;50.710;14.492;2023-02-13T01:39:52;25.21;33.58
65472;DHT22;52068;50.710;14.492;2023-02-13T01:42:24;25.08;33.84
65472;DHT22;52068;50.710;14.492;2023-02-13T01:44:51;24.87;34.22
65472;DHT22;52068;50.710;14.492;2023-02-13T01:47:25;24.65;34.53
65472;DHT22;52068;50.710;14.492;2023-02-13T01:49:58;24.46;34.82
65472;DHT22;52068;50.710;14.492;2023-02-13T01:52:25;24.33;35.10
65472;DHT22;52068;50.710;14.492;2023-02-13T01:54:51;24.22;35.31
65472;DHT22;52068;50.710;14.492;2023-02-13T01:57:18;24.09;35.50
65472;DHT22;52068;50.710;14.492;2023-02-13T01:59:53;23.95;35.76
65472;DHT22;52068;50.710;14.492;2023-02-13T02:02:19;23.81;35.99
65472;DHT22;52068;50.710;14.492;2023-02-13T02:04:45;23.72;36.13
65472;DHT22;52068;50.710;14.492;2023-02-13T02:07:18;23.58;36.27
65472;DHT22;52068;50.710;14.492;2023-02-13T02:09:44;23.47;36.57
65472;DHT22;52068;50.710;14.492;2023-02-13T02:14:35;23.71;36.41
65472;DHT22;52068;50.710;14.492;2023-02-13T02:17:00;24.22;35.65
65472;DHT22;52068;50.710;14.492;2023-02-13T02:30:04;26.08;33.07
65472;DHT22;52068;50.710;14.492;2023-02-13T02:32:37;25.94;33.19
65472;DHT22;52068;50.710;14.492;2023-02-13T02:48:08;24.47;35.11
65472;DHT22;52068;50.710;14.492;2023-02-13T02:51:06;24.27;35.42
65472;DHT22;52068;50.710;14.492;2023-02-13T02:59:00;23.84;35.74
65472;DHT22;52068;50.710;14.492;2023-02-13T03:01:36;23.65;36.03
65472;DHT22;52068;50.710;14.492;2023-02-13T03:04:26;23.68;35.99
65472;DHT22;52068;50.710;14.492;2023-02-13T03:07:12;24.20;35.62
65472;DHT22;52068;50.710;14.492;2023-02-13T03:09:40;24.65;34.73
65472;DHT22;52068;50.710;14.492;2023-02-13T03:12:28;25.31;33.75
65472;DHT22;52068;50.710;14.492;2023-02-13T03:15:12;25.97;32.62
65472;DHT22;52068;50.710;14.492;2023-02-13T03:17:38;26.31;31.97
65472;DHT22;52068;50.710;14.492;2023-02-13T03:25:59;26.35;31.72
65472;DHT22;52068;50.710;14.492;2023-02-13T03:33:53;25.53;33.12
65472;DHT22;52068;50.710;14.492;2023-02-13T03:41:44;24.77;34.69
65472;DHT22;52068;50.710;14.492;2023-02-13T03:44:15;24.57;34.89
65472;DHT22;52068;50.710;14.492;2023-02-13T03:46:43;24.34;35.09
65472;DHT22;52068;50.710;14.492;2023-02-13T03:49:11;24.19;35.35
65472;DHT22;52068;50.710;14.492;2023-02-13T03:54:22;23.85;35.55
65472;DHT22;52068;50.710;14.492;2023-02-13T03:57:09;23.66;35.94
65472;DHT22;52068;50.710;14.492;2023-02-13T03:59:53;23.66;36.05
65472;DHT22;52068;50.710;14.492;2023-02-13T04:02:21;23.88;35.70
65472;DHT22;52068;50.710;14.492;2023-02-13T04:04:51;24.27;35.36
65472;DHT22;52068;50.710;14.492;2023-02-13T04:07:18;24.70;34.48
65472;DHT22;52068;50.710;14.492;2023-02-13T04:09:58;25.03;33.95
65472;DHT22;52068;50.710;14.492;2023-02-13T04:12:47;25.28;33.57
65472;DHT22;52068;50.710;14.492;2023-02-13T04:17:48;25.24;33.43
65472;DHT22;52068;50.710;14.492;2023-02-13T04:20:13;25.08;33.77
65472;DHT22;52068;50.710;14.492;2023-02-13T04:22:42;24.92;34.01
65472;DHT22;52068;50.710;14.492;2023-02-13T04:25:09;24.73;34.23
65472;DHT22;52068;50.710;14.492;2023-02-13T04:27:34;24.59;34.50
65472;DHT22;52068;50.710;14.492;2023-02-13T04:29:59;24.41;34.76
65472;DHT22;52068;50.710;14.492;2023-02-13T04:32:25;24.29;34.84
65472;DHT22;52068;50.710;14.492;2023-02-13T04:34:50;24.13;35.00
65472;DHT22;52068;50.710;14.492;2023-02-13T04:37:15;24.01;35.66
65472;DHT22;52068;50.710;14.492;2023-02-13T04:39:40;23.90;35.83
65472;DHT22;52068;50.710;14.492;2023-02-13T04:42:06;23.74;36.04
65472;DHT22;52068;50.710;14.492;2023-02-13T04:44:31;23.61;36.13
65472;DHT22;52068;50.710;14.492;2023-02-13T04:46:56;23.47;36.36
65472;DHT22;52068;50.710;14.492;2023-02-13T04:49:21;23.50;36.46
65472;DHT22;52068;50.710;14.492;2023-02-13T04:51:47;23.75;36.04
65472;DHT22;52068;50.710;14.492;2023-02-13T04:54:12;24.17;35.53
65472;DHT22;52068;50.710;14.492;2023-02-13T04:56:37;24.52;35.02
65472;DHT22;52068;50.710;14.492;2023-02-13T04:59:02;24.83;34.72
65472;DHT22;52068;50.710;14.492;2023-02-13T05:01:28;25.07;34.41
65472;DHT22;52068;50.710;14.492;2023-02-13T05:03:53;25.28;34.22
65472;DHT22;52068;50.710;14.492;2023-02-13T05:06:18;25.28;34.07
65472;DHT22;52068;50.710;14.492;2023-02-13T05:08:44;25.21;34.03
65472;DHT22;52068;50.710;14.492;2023-02-13T05:11:09;25.15;33.92
65472;DHT22;52068;50.710;14.492;2023-02-13T05:13:34;25.01;34.08
65472;DHT22;52068;50.710;14.492;2023-02-13T05:15:59;24.88;34.10
65472;DHT22;52068;50.710;14.492;2023-02-13T05:18:25;24.71;34.20
65472;DHT22;52068;50.710;14.492;2023-02-13T05:20:50;24.53;34.36
65472;DHT22;52068;50.710;14.492;2023-02-13T05:23:34;24.32;34.58
65472;DHT22;52068;50.710;14.492;2023-02-13T05:25:59;24.15;34.70
65472;DHT22;52068;50.710;14.492;2023-02-13T05:28:25;24.02;34.91
65472;DHT22;52068;50.710;14.492;2023-02-13T05:31:10;23.86;35.37
65472;DHT22;52068;50.710;14.492;2023-02-13T05:33:35;23.88;35.32
65472;DHT22;52068;50.710;14.492;2023-02-13T05:36:01;24.30;34.83
65472;DHT22;52068;50.710;14.492;2023-02-13T05:38:26;25.25;33.37
65472;DHT22;52068;50.710;14.492;2023-02-13T05:40:51;26.43;31.41
65472;DHT22;52068;50.710;14.492;2023-02-13T05:43:18;27.44;29.86
65472;DHT22;52068;50.710;14.492;2023-02-13T05:45:43;28.36;28.51
65472;DHT22;52068;50.710;14.492;2023-02-13T05:48:08;29.11;27.46
65472;DHT22;52068;50.710;14.492;2023-02-13T05:50:33;29.71;26.68
65472;DHT22;52068;50.710;14.492;2023-02-13T05:52:59;30.05;26.23
65472;DHT22;52068;50.710;14.492;2023-02-13T05:55:24;30.20;26.03
65472;DHT22;52068;50.710;14.492;2023-02-13T05:57:49;30.12;26.24
65472;DHT22;52068;50.710;14.492;2023-02-13T06:00:14;29.89;26.59
65472;DHT22;52068;50.710;14.492;2023-02-13T06:02:40;29.65;26.83
65472;DHT22;52068;50.710;14.492;2023-02-13T06:05:05;29.34;27.20
65472;DHT22;52068;50.710;14.492;2023-02-13T06:07:30;29.03;27.64
65472;DHT22;52068;50.710;14.492;2023-02-13T06:09:56;28.67;27.99
65472;DHT22;52068;50.710;14.492;2023-02-13T06:12:23;28.34;28.52
65472;DHT22;52068;50.710;14.492;2023-02-13T06:14:49;27.93;29.01
65472;DHT22;52068;50.710;14.492;2023-02-13T06:17:14;27.58;29.46
65472;DHT22;52068;50.710;14.492;2023-02-13T06:19:39;27.26;29.89
65472;DHT22;52068;50.710;14.492;2023-02-13T06:22:05;26.94;30.40
65472;DHT22;52068;50.710;14.492;2023-02-13T06:24:30;26.64;30.71
65472;DHT22;52068;50.710;14.492;2023-02-13T06:26:55;26.33;31.04
65472;DHT22;52068;50.710;14.492;2023-02-13T06:29:21;26.00;31.38
65472;DHT22;52068;50.710;14.492;2023-02-13T06:31:47;25.75;31.80
65472;DHT22;52068;50.710;14.492;2023-02-13T06:34:12;25.42;32.20
65472;DHT22;52068;50.710;14.492;2023-02-13T06:36:37;25.15;32.67
65472;DHT22;52068;50.710;14.492;2023-02-13T06:39:03;24.91;33.11
65472;DHT22;52068;50.710;14.492;2023-02-13T06:41:28;24.63;33.48
65472;DHT22;52068;50.710;14.492;2023-02-13T06:43:54;24.40;33.79
65472;DHT22;52068;50.710;14.492;2023-02-13T06:46:19;24.20;34.11
65472;DHT22;52068;50.710;14.492;2023-02-13T06:48:44;24.02;34.54
65472;DHT22;52068;50.710;14.492;2023-02-13T06:51:09;23.84;34.81
65472;DHT22;52068;50.710;14.492;2023-02-13T06:53:35;23.64;35.15
65472;DHT22;52068;50.710;14.492;2023-02-13T06:56:02;23.48;35.40
65472;DHT22;52068;50.710;14.492;2023-02-13T06:58:28;23.35;35.66
65472;DHT22;52068;50.710;14.492;2023-02-13T07:00:53;23.17;35.94
65472;DHT22;52068;50.710;14.492;2023-02-13T07:03:18;23.07;36.21
65472;DHT22;52068;50.710;14.492;2023-02-13T07:05:44;22.93;36.34
65472;DHT22;52068;50.710;14.492;2023-02-13T07:08:10;22.80;36.59
65472;DHT22;52068;50.710;14.492;2023-02-13T07:10:36;22.70;36.73
65472;DHT22;52068;50.710;14.492;2023-02-13T07:13:01;22.59;36.98
65472;DHT22;52068;50.710;14.492;2023-02-13T07:15:26;22.53;37.14
65472;DHT22;52068;50.710;14.492;2023-02-13T07:17:58;22.43;37.32
65472;DHT22;52068;50.710;14.492;2023-02-13T07:20:24;22.33;37.47
65472;DHT22;52068;50.710;14.492;2023-02-13T07:22:49;22.25;37.62
65472;DHT22;52068;50.710;14.492;2023-02-13T07:25:15;22.19;37.70
65472;DHT22;52068;50.710;14.492;2023-02-13T07:27:40;22.12;37.84
65472;DHT22;52068;50.710;14.492;2023-02-13T07:30:05;22.05;37.92
65472;DHT22;52068;50.710;14.492;2023-02-13T07:32:31;22.01;38.20
65472;DHT22;52068;50.710;14.492;2023-02-13T07:34:56;21.91;38.24
65472;DHT22;52068;50.710;14.492;2023-02-13T07:37:21;21.87;38.40
65472;DHT22;52068;50.710;14.492;2023-02-13T07:39:47;21.83;38.44
65472;DHT22;52068;50.710;14.492;2023-02-13T07:42:12;21.78;38.58
65472;DHT22;52068;50.710;14.492;2023-02-13T07:44:37;21.71;38.69
65472;DHT22;52068;50.710;14.492;2023-02-13T07:47:03;21.64;38.87
65472;DHT22;52068;50.710;14.492;2023-02-13T07:49:28;21.61;38.90
65472;DHT22;52068;50.710;14.492;2023-02-13T07:51:54;21.55;39.00
65472;DHT22;52068;50.710;14.492;2023-02-13T07:54:20;21.50;39.14
65472;DHT22;52068;50.710;14.492;2023-02-13T07:56:45;21.46;39.21
65472;DHT22;52068;50.710;14.492;2023-02-13T07:59:10;21.43;39.34
65472;DHT22;52068;50.710;14.492;2023-02-13T08:01:35;21.37;39.41
65472;DHT22;52068;50.710;14.492;2023-02-13T08:04:01;21.32;39.45
65472;DHT22;52068;50.710;14.492;2023-02-13T08:06:26;21.30;39.60
65472;DHT22;52068;50.710;14.492;2023-02-13T08:08:51;21.27;39.61
65472;DHT22;52068;50.710;14.492;2023-02-13T08:11:37;21.23;39.72
65472;DHT22;52068;50.710;14.492;2023-02-13T08:14:24;21.20;39.70
65472;DHT22;52068;50.710;14.492;2023-02-13T08:16:50;21.18;39.80
65472;DHT22;52068;50.710;14.492;2023-02-13T08:19:15;21.16;39.85
65472;DHT22;52068;50.710;14.492;2023-02-13T08:21:41;21.13;39.96
65472;DHT22;52068;50.710;14.492;2023-02-13T08:24:06;21.10;39.94
65472;DHT22;52068;50.710;14.492;2023-02-13T08:26:32;21.12;39.98
65472;DHT22;52068;50.710;14.492;2023-02-13T08:28:58;21.07;39.97
65472;DHT22;52068;50.710;14.492;2023-02-13T08:31:23;21.07;40.08
65472;DHT22;52068;50.710;14.492;2023-02-13T08:33:48;21.06;40.10
65472;DHT22;52068;50.710;14.492;2023-02-13T08:36:14;21.04;40.13
65472;DHT22;52068;50.710;14.492;2023-02-13T08:38:39;21.02;40.11
65472;DHT22;52068;50.710;14.492;2023-02-13T08:41:04;21.02;40.22
65472;DHT22;52068;50.710;14.492;2023-02-13T08:43:29;21.00;40.17
65472;DHT22;52068;50.710;14.492;2023-02-13T08:45:58;21.00;40.22
65472;DHT22;52068;50.710;14.492;2023-02-13T08:48:24;20.96;40.25
65472;DHT22;52068;50.710;14.492;2023-02-13T08:50:49;20.95;40.25
65472;DHT22;52068;50.710;14.492;2023-02-13T08:53:14;20.95;40.29
65472;DHT22;52068;50.710;14.492;2023-02-13T08:55:39;20.95;40.34
65472;DHT22;52068;50.710;14.492;2023-02-13T08:58:05;20.93;40.31
65472;DHT22;52068;50.710;14.492;2023-02-13T09:00:30;20.92;40.32
65472;DHT22;52068;50.710;14.492;2023-02-13T09:03:02;20.92;40.34
65472;DHT22;52068;50.710;14.492;2023-02-13T09:05:27;20.91;40.34
65472;DHT22;52068;50.710;14.492;2023-02-13T09:07:53;20.91;40.41
65472;DHT22;52068;50.710;14.492;2023-02-13T09:10:18;20.89;40.38
65472;DHT22;52068;50.710;14.492;2023-02-13T09:12:43;20.92;40.38
65472;DHT22;52068;50.710;14.492;2023-02-13T09:15:09;20.91;40.43
65472;DHT22;52068;50.710;14.492;2023-02-13T09:17:34;20.86;40.44
65472;DHT22;52068;50.710;14.492;2023-02-13T09:19:59;20.86;40.43
65472;DHT22;52068;50.710;14.492;2023-02-13T09:22:24;20.85;40.53
65472;DHT22;52068;50.710;14.492;2023-02-13T09:24:50;20.85;40.51
65472;DHT22;52068;50.710;14.492;2023-02-13T09:27:15;20.88;40.51
65472;DHT22;52068;50.710;14.492;2023-02-13T09:29:40;20.89;40.51
65472;DHT22;52068;50.710;14.492;2023-02-13T09:32:05;20.89;40.50
65472;DHT22;52068;50.710;14.492;2023-02-13T09:34:31;20.89;40.40
65472;DHT22;52068;50.710;14.492;2023-02-13T09:36:56;20.89;40.50
65472;DHT22;52068;50.710;14.492;2023-02-13T09:39:21;20.88;40.53
65472;DHT22;52068;50.710;14.492;2023-02-13T09:41:48;20.86;40.57
65472;DHT22;52068;50.710;14.492;2023-02-13T09:44:15;20.88;40.69
65472;DHT22;52068;50.710;14.492;2023-02-13T09:47:03;20.88;40.69
65472;DHT22;52068;50.710;14.492;2023-02-13T09:49:30;20.88;40.72
65472;DHT22;52068;50.710;14.492;2023-02-13T09:51:56;20.83;40.77
65472;DHT22;52068;50.710;14.492;2023-02-13T09:54:22;20.85;40.88
65472;DHT22;52068;50.710;14.492;2023-02-13T09:57:02;20.83;40.95
65472;DHT22;52068;50.710;14.492;2023-02-13T09:59:45;20.79;40.93
65472;DHT22;52068;50.710;14.492;2023-02-13T10:04:47;20.79;41.10
65472;DHT22;52068;50.710;14.492;2023-02-13T10:07:19;20.81;41.07
65472;DHT22;52068;50.710;14.492;2023-02-13T10:12:22;20.79;41.21
65472;DHT22;52068;50.710;14.492;2023-02-13T10:20:16;20.78;41.26
65472;DHT22;52068;50.710;14.492;2023-02-13T10:22:48;20.73;41.36
65472;DHT22;52068;50.710;14.492;2023-02-13T10:25:16;20.72;41.44
65472;DHT22;52068;50.710;14.492;2023-02-13T10:27:44;20.69;41.45
65472;DHT22;52068;50.710;14.492;2023-02-13T10:35:14;20.69;41.42
65472;DHT22;52068;50.710;14.492;2023-02-13T10:37:41;20.68;41.51
65472;DHT22;52068;50.710;14.492;2023-02-13T10:40:08;20.68;41.53
65472;DHT22;52068;50.710;14.492;2023-02-13T10:42:42;20.64;41.57
65472;DHT22;52068;50.710;14.492;2023-02-13T10:47:53;20.62;41.61
65472;DHT22;52068;50.710;14.492;2023-02-13T10:53:00;20.64;41.67
65472;DHT22;52068;50.710;14.492;2023-02-13T11:00:41;20.59;41.67
65472;DHT22;52068;50.710;14.492;2023-02-13T11:03:16;20.61;41.74
65472;DHT22;52068;50.710;14.492;2023-02-13T11:05:42;20.59;41.85
65472;DHT22;52068;50.710;14.492;2023-02-13T11:10:45;20.58;41.76
65472;DHT22;52068;50.710;14.492;2023-02-13T11:13:14;20.58;41.79
65472;DHT22;52068;50.710;14.492;2023-02-13T11:15:40;20.61;41.72
65472;DHT22;52068;50.710;14.492;2023-02-13T11:18:13;20.58;41.81
65472;DHT22;52068;50.710;14.492;2023-02-13T11:20:42;20.59;41.84
65472;DHT22;52068;50.710;14.492;2023-02-13T11:25:37;20.59;41.85
65472;DHT22;52068;50.710;14.492;2023-02-13T11:28:07;20.59;41.74
65472;DHT22;52068;50.710;14.492;2023-02-13T11:30:34;20.61;41.79
65472;DHT22;52068;50.710;14.492;2023-02-13T11:33:00;20.61;41.81
65472;DHT22;52068;50.710;14.492;2023-02-13T11:38:00;20.61;41.76
65472;DHT22;52068;50.710;14.492;2023-02-13T11:40:35;20.62;41.78
65472;DHT22;52068;50.710;14.492;2023-02-13T11:43:00;20.62;41.76
65472;DHT22;52068;50.710;14.492;2023-02-13T11:45:26;20.61;41.71
65472;DHT22;52068;50.710;14.492;2023-02-13T11:47:52;20.62;41.70
65472;DHT22;52068;50.710;14.492;2023-02-13T11:50:20;20.62;41.74
65472;DHT22;52068;50.710;14.492;2023-02-13T11:52:54;20.62;41.76
65472;DHT22;52068;50.710;14.492;2023-02-13T11:55:28;20.62;41.74
65472;DHT22;52068;50.710;14.492;2023-02-13T11:57:58;20.61;41.79
65472;DHT22;52068;50.710;14.492;2023-02-13T12:00:26;20.64;41.76
65472;DHT22;52068;50.710;14.492;2023-02-13T12:02:55;20.61;41.74
65472;DHT22;52068;50.710;14.492;2023-02-13T12:05:21;20.64;41.76
65472;DHT22;52068;50.710;14.492;2023-02-13T12:07:47;20.62;41.82
65472;DHT22;52068;50.710;14.492;2023-02-13T12:10:26;20.58;41.76
65472;DHT22;52068;50.710;14.492;2023-02-13T12:12:55;20.59;41.84
65472;DHT22;52068;50.710;14.492;2023-02-13T12:15:26;20.59;41.75
65472;DHT22;52068;50.710;14.492;2023-02-13T12:18:37;20.59;41.82
65472;DHT22;52068;50.710;14.492;2023-02-13T12:20:43;20.59;41.95
65472;DHT22;52068;50.710;14.492;2023-02-13T12:38:26;20.55;42.19
65472;DHT22;52068;50.710;14.492;2023-02-13T12:41:15;20.54;42.11
65472;DHT22;52068;50.710;14.492;2023-02-13T12:46:45;20.56;42.21
65472;DHT22;52068;50.710;14.492;2023-02-13T12:54:15;20.55;42.19
65472;DHT22;52068;50.710;14.492;2023-02-13T12:59:39;20.52;42.35
65472;DHT22;52068;50.710;14.492;2023-02-13T13:02:21;20.52;42.27
65472;DHT22;52068;50.710;14.492;2023-02-13T13:10:51;20.49;42.40
65472;DHT22;52068;50.710;14.492;2023-02-13T13:15:36;20.49;42.38
65472;DHT22;52068;50.710;14.492;2023-02-13T13:29:00;20.49;42.32
65472;DHT22;52068;50.710;14.492;2023-02-13T13:31:06;20.51;42.49
65472;DHT22;52068;50.710;14.492;2023-02-13T13:33:32;20.52;42.31
65472;DHT22;52068;50.710;14.492;2023-02-13T13:38:47;20.52;42.22
65472;DHT22;52068;50.710;14.492;2023-02-13T13:49:08;20.51;42.15
65472;DHT22;52068;50.710;14.492;2023-02-13T13:51:37;20.52;42.20
65472;DHT22;52068;50.710;14.492;2023-02-13T14:07:32;20.45;42.22
65472;DHT22;52068;50.710;14.492;2023-02-13T14:09:58;20.45;42.29
65472;DHT22;52068;50.710;14.492;2023-02-13T14:14:49;20.44;42.29
65472;DHT22;52068;50.710;14.492;2023-02-13T14:17:14;20.42;42.33
65472;DHT22;52068;50.710;14.492;2023-02-13T14:19:41;20.41;42.36
65472;DHT22;52068;50.710;14.492;2023-02-13T14:24:55;20.40;42.23
65472;DHT22;52068;50.710;14.492;2023-02-13T14:29:49;20.41;42.26
65472;DHT22;52068;50.710;14.492;2023-02-13T14:32:16;20.41;42.26
65472;DHT22;52068;50.710;14.492;2023-02-13T14:34:45;20.42;42.34
65472;DHT22;52068;50.710;14.492;2023-02-13T14:37:16;20.40;42.34
65472;DHT22;52068;50.710;14.492;2023-02-13T14:42:29;20.40;42.40
65472;DHT22;52068;50.710;14.492;2023-02-13T14:44:55;20.40;42.34
65472;DHT22;52068;50.710;14.492;2023-02-13T14:47:23;20.35;42.41
65472;DHT22;52068;50.710;14.492;2023-02-13T14:49:52;20.37;42.39
65472;DHT22;52068;50.710;14.492;2023-02-13T14:52:23;20.38;42.34
65472;DHT22;52068;50.710;14.492;2023-02-13T14:54:57;20.38;42.34
65472;DHT22;52068;50.710;14.492;2023-02-13T14:57:34;20.37;42.35
65472;DHT22;52068;50.710;14.492;2023-02-13T15:02:40;20.37;42.35
65472;DHT22;52068;50.710;14.492;2023-02-13T15:05:09;20.37;42.27
65472;DHT22;52068;50.710;14.492;2023-02-13T15:07:37;20.35;42.37
65472;DHT22;52068;50.710;14.492;2023-02-13T15:12:39;20.38;42.35
65472;DHT22;52068;50.710;14.492;2023-02-13T15:17:48;20.37;42.45
65472;DHT22;52068;50.710;14.492;2023-02-13T15:20:23;20.37;42.48
65472;DHT22;52068;50.710;14.492;2023-02-13T15:22:50;20.37;42.49
65472;DHT22;52068;50.710;14.492;2023-02-13T15:27:53;20.35;42.75
65472;DHT22;52068;50.710;14.492;2023-02-13T15:30:22;20.35;42.73
65472;DHT22;52068;50.710;14.492;2023-02-13T15:35:45;20.35;42.79
65472;DHT22;52068;50.710;14.492;2023-02-13T15:38:24;20.37;42.73
65472;DHT22;52068;50.710;14.492;2023-02-13T15:40:50;20.34;42.88
65472;DHT22;52068;50.710;14.492;2023-02-13T15:43:21;20.35;42.82
65472;DHT22;52068;50.710;14.492;2023-02-13T15:45:47;20.34;42.90
65472;DHT22;52068;50.710;14.492;2023-02-13T15:48:16;20.33;42.86
65472;DHT22;52068;50.710;14.492;2023-02-13T15:50:41;20.31;42.84
65472;DHT22;52068;50.710;14.492;2023-02-13T15:53:10;20.31;42.89
65472;DHT22;52068;50.710;14.492;2023-02-13T15:55:37;20.30;42.92
65472;DHT22;52068;50.710;14.492;2023-02-13T15:58:02;20.30;42.95
65472;DHT22;52068;50.710;14.492;2023-02-13T16:00:29;20.31;42.99
65472;DHT22;52068;50.710;14.492;2023-02-13T16:02:55;20.28;42.98
65472;DHT22;52068;50.710;14.492;2023-02-13T16:05:21;20.27;42.99
65472;DHT22;52068;50.710;14.492;2023-02-13T16:07:49;20.25;43.02
65472;DHT22;52068;50.710;14.492;2023-02-13T16:10:24;20.25;43.01
65472;DHT22;52068;50.710;14.492;2023-02-13T16:12:50;20.24;43.01
65472;DHT22;52068;50.710;14.492;2023-02-13T16:15:16;20.21;43.01
65472;DHT22;52068;50.710;14.492;2023-02-13T16:17:43;20.21;42.96
65472;DHT22;52068;50.710;14.492;2023-02-13T16:22:44;20.18;42.96
65472;DHT22;52068;50.710;14.492;2023-02-13T16:27:43;20.20;42.93
65472;DHT22;52068;50.710;14.492;2023-02-13T16:30:43;20.20;42.81
65472;DHT22;52068;50.710;14.492;2023-02-13T16:34:01;20.20;42.92
65472;DHT22;52068;50.710;14.492;2023-02-13T16:35:57;20.21;42.86
65472;DHT22;52068;50.710;14.492;2023-02-13T16:40:48;20.20;42.84
65472;DHT22;52068;50.710;14.492;2023-02-13T16:48:38;20.18;42.77
65472;DHT22;52068;50.710;14.492;2023-02-13T16:51:03;20.18;42.73
65472;DHT22;52068;50.710;14.492;2023-02-13T16:53:28;20.20;42.75
65472;DHT22;52068;50.710;14.492;2023-02-13T16:56:00;20.18;42.72
65472;DHT22;52068;50.710;14.492;2023-02-13T16:58:26;20.17;42.75
65472;DHT22;52068;50.710;14.492;2023-02-13T17:00:51;20.16;42.71
65472;DHT22;52068;50.710;14.492;2023-02-13T17:03:17;20.14;42.65
65472;DHT22;52068;50.710;14.492;2023-02-13T17:05:42;20.13;42.68
65472;DHT22;52068;50.710;14.492;2023-02-13T17:08:07;20.10;42.73
65472;DHT22;52068;50.710;14.492;2023-02-13T17:10:34;20.10;42.68
65472;DHT22;52068;50.710;14.492;2023-02-13T17:13:00;20.09;42.73
65472;DHT22;52068;50.710;14.492;2023-02-13T17:15:27;20.07;42.68
65472;DHT22;52068;50.710;14.492;2023-02-13T17:17:53;20.04;42.77
65472;DHT22;52068;50.710;14.492;2023-02-13T17:20:20;20.01;42.74
65472;DHT22;52068;50.710;14.492;2023-02-13T17:22:46;20.03;42.77
65472;DHT22;52068;50.710;14.492;2023-02-13T17:27:43;20.03;42.80
65472;DHT22;52068;50.710;14.492;2023-02-13T17:30:12;19.98;42.85
65472;DHT22;52068;50.710;14.492;2023-02-13T17:32:37;19.98;42.81
65472;DHT22;52068;50.710;14.492;2023-02-13T17:35:03;19.98;42.81
65472;DHT22;52068;50.710;14.492;2023-02-13T17:37:28;19.98;42.82
65472;DHT22;52068;50.710;14.492;2023-02-13T17:39:54;19.96;42.79
65472;DHT22;52068;50.710;14.492;2023-02-13T17:42:21;20.00;42.75
65472;DHT22;52068;50.710;14.492;2023-02-13T17:44:47;20.03;42.80
65472;DHT22;52068;50.710;14.492;2023-02-13T17:47:12;20.04;42.84
65472;DHT22;52068;50.710;14.492;2023-02-13T17:49:37;20.01;42.87
65472;DHT22;52068;50.710;14.492;2023-02-13T17:52:03;20.06;42.88
65472;DHT22;52068;50.710;14.492;2023-02-13T17:54:28;20.06;42.93
65472;DHT22;52068;50.710;14.492;2023-02-13T17:56:54;20.04;42.96
65472;DHT22;52068;50.710;14.492;2023-02-13T17:59:19;20.04;42.99
65472;DHT22;52068;50.710;14.492;2023-02-13T18:01:44;20.03;43.02
65472;DHT22;52068;50.710;14.492;2023-02-13T18:04:09;20.04;43.07
65472;DHT22;52068;50.710;14.492;2023-02-13T18:06:35;20.01;43.19
65472;DHT22;52068;50.710;14.492;2023-02-13T18:09:00;20.07;43.05
65472;DHT22;52068;50.710;14.492;2023-02-13T18:11:25;20.16;42.80
65472;DHT22;52068;50.710;14.492;2023-02-13T18:13:50;20.27;42.54
65472;DHT22;52068;50.710;14.492;2023-02-13T18:16:16;20.44;42.29
65472;DHT22;52068;50.710;14.492;2023-02-13T18:18:41;20.61;41.78
65472;DHT22;52068;50.710;14.492;2023-02-13T18:21:06;20.75;41.56
65472;DHT22;52068;50.710;14.492;2023-02-13T18:23:31;20.91;41.28
65472;DHT22;52068;50.710;14.492;2023-02-13T18:26:04;21.09;40.88
65472;DHT22;52068;50.710;14.492;2023-02-13T18:28:29;21.23;40.65
65472;DHT22;52068;50.710;14.492;2023-02-13T18:30:55;21.32;40.39
65472;DHT22;52068;50.710;14.492;2023-02-13T18:33:20;21.44;40.17